DAL1882 KATL-TJSJ
Flight info
| Callsign | DAL1882 |
|---|---|
| Flight time | 3h 9m |
| Altitude | 34000 |
| Route | VRSTY3 NOKIE DCT YANTI Q89 MANLE Y185 RENAH Y355 PLING RTE7 SAALR DCT |
| Aircraft | A321/M-V/N |
Departure
| Time | 2026-05-07 18:45 |
|---|---|
| Airport | Hartsfield Jackson Atlanta International Airport (KATL) |
Arrival
| Time | 2026-05-07 21:55 |
|---|---|
| Airport | Luis Munoz Marin International Airport (TJSJ) |
| Time | Latitude | Longitude | Altitude | Speed | Heading |
|---|---|---|---|---|---|
| 2026-05-07 18:14 | 33.63917 | -84.43531 | 1008 ft | 0 kts | 268° |
| 2026-05-07 18:33 | 33.63917 | -84.43522 | 1006 ft | 3 kts | 268° |
| 2026-05-07 18:33 | 33.63918 | -84.43500 | 1006 ft | 3 kts | 268° |
| 2026-05-07 18:34 | 33.63922 | -84.43478 | 1006 ft | 3 kts | 217° |
| 2026-05-07 18:34 | 33.63932 | -84.43471 | 1006 ft | 1 kts | 184° |
| 2026-05-07 18:34 | 33.63933 | -84.43471 | 1006 ft | 0 kts | 184° |
| 2026-05-07 18:36 | 33.63920 | -84.43471 | 1006 ft | 5 kts | 176° |
| 2026-05-07 18:37 | 33.63886 | -84.43462 | 1006 ft | 4 kts | 171° |
| 2026-05-07 18:37 | 33.63858 | -84.43461 | 1006 ft | 4 kts | 178° |
| 2026-05-07 18:37 | 33.63824 | -84.43460 | 1006 ft | 6 kts | 179° |
| 2026-05-07 18:37 | 33.63774 | -84.43458 | 1006 ft | 9 kts | 179° |
| 2026-05-07 18:38 | 33.63746 | -84.43458 | 1006 ft | 0 kts | 180° |
| 2026-05-07 18:38 | 33.63737 | -84.43459 | 1006 ft | 4 kts | 181° |
| 2026-05-07 18:38 | 33.63697 | -84.43457 | 1006 ft | 8 kts | 169° |
| 2026-05-07 18:39 | 33.63665 | -84.43380 | 1006 ft | 13 kts | 95° |
| 2026-05-07 18:39 | 33.63664 | -84.43304 | 1006 ft | 14 kts | 89° |
| 2026-05-07 18:39 | 33.63664 | -84.43142 | 1006 ft | 15 kts | 88° |
| 2026-05-07 18:39 | 33.63665 | -84.43011 | 1006 ft | 16 kts | 91° |
| 2026-05-07 18:40 | 33.63664 | -84.42873 | 1006 ft | 17 kts | 90° |
| 2026-05-07 18:40 | 33.63656 | -84.42728 | 1006 ft | 18 kts | 95° |
| 2026-05-07 18:40 | 33.63655 | -84.42578 | 1007 ft | 18 kts | 89° |
| 2026-05-07 18:40 | 33.63655 | -84.42420 | 1006 ft | 19 kts | 90° |
| 2026-05-07 18:41 | 33.63654 | -84.42256 | 1007 ft | 20 kts | 90° |
| 2026-05-07 18:41 | 33.63656 | -84.42084 | 1007 ft | 21 kts | 89° |
| 2026-05-07 18:41 | 33.63656 | -84.41902 | 1006 ft | 22 kts | 90° |
| 2026-05-07 18:41 | 33.63655 | -84.41710 | 1006 ft | 24 kts | 90° |
| 2026-05-07 18:42 | 33.63656 | -84.41506 | 1006 ft | 25 kts | 90° |
| 2026-05-07 18:42 | 33.63655 | -84.41289 | 1006 ft | 27 kts | 91° |
| 2026-05-07 18:42 | 33.63655 | -84.41064 | 1006 ft | 27 kts | 90° |
| 2026-05-07 18:42 | 33.63655 | -84.40848 | 1006 ft | 20 kts | 90° |
| 2026-05-07 18:43 | 33.63632 | -84.40753 | 1007 ft | 1 kts | 149° |
| 2026-05-07 18:43 | 33.63632 | -84.40752 | 1007 ft | 0 kts | 149° |
| 2026-05-07 18:43 | 33.63621 | -84.40747 | 1007 ft | 5 kts | 159° |
| 2026-05-07 18:43 | 33.63565 | -84.40743 | 1007 ft | 9 kts | 182° |
| 2026-05-07 18:44 | 33.63510 | -84.40746 | 1007 ft | 7 kts | 188° |
| 2026-05-07 18:44 | 33.63476 | -84.40788 | 1007 ft | 10 kts | 253° |
| 2026-05-07 18:44 | 33.63472 | -84.40848 | 1007 ft | 10 kts | 270° |
| 2026-05-07 18:44 | 33.63472 | -84.41036 | 1006 ft | 46 kts | 269° |
| 2026-05-07 18:45 | 33.63470 | -84.41736 | 1006 ft | 119 kts | 269° |
| 2026-05-07 18:45 | 33.63466 | -84.42965 | 1054 ft | 169 kts | 270° |
| 2026-05-07 18:45 | 33.63452 | -84.44464 | 1495 ft | 191 kts | 273° |
| 2026-05-07 18:45 | 33.63462 | -84.46168 | 1891 ft | 216 kts | 272° |
| 2026-05-07 18:46 | 33.63460 | -84.48065 | 2081 ft | 239 kts | 272° |
| 2026-05-07 18:46 | 33.63460 | -84.50120 | 2561 ft | 249 kts | 272° |
| 2026-05-07 18:46 | 33.63459 | -84.52192 | 3329 ft | 249 kts | 270° |
| 2026-05-07 18:46 | 33.63457 | -84.53575 | 3792 ft | 251 kts | 270° |
| 2026-05-07 18:47 | 33.63454 | -84.56371 | 4778 ft | 251 kts | 270° |
| 2026-05-07 18:47 | 33.63453 | -84.57762 | 5261 ft | 251 kts | 270° |
| 2026-05-07 18:47 | 33.63451 | -84.59854 | 6015 ft | 250 kts | 270° |
| 2026-05-07 18:47 | 33.63420 | -84.62639 | 6984 ft | 249 kts | 264° |
| 2026-05-07 18:48 | 33.63183 | -84.63991 | 7407 ft | 251 kts | 253° |
| 2026-05-07 18:48 | 33.62385 | -84.65861 | 8061 ft | 256 kts | 237° |
| 2026-05-07 18:48 | 33.61097 | -84.67380 | 8709 ft | 265 kts | 220° |
| 2026-05-07 18:48 | 33.59486 | -84.68510 | 9343 ft | 271 kts | 214° |
| 2026-05-07 18:49 | 33.57672 | -84.69282 | 9958 ft | 283 kts | 198° |
| 2026-05-07 18:49 | 33.55662 | -84.69386 | 10451 ft | 299 kts | 181° |
| 2026-05-07 18:49 | 33.53577 | -84.68993 | 10991 ft | 305 kts | 180° |
| 2026-05-07 18:49 | 33.51463 | -84.68585 | 11541 ft | 309 kts | 181° |
| 2026-05-07 18:50 | 33.49321 | -84.68181 | 12245 ft | 314 kts | 182° |
| 2026-05-07 18:50 | 33.47143 | -84.67774 | 12943 ft | 318 kts | 183° |
| 2026-05-07 18:50 | 33.44938 | -84.67250 | 13581 ft | 332 kts | 173° |
| 2026-05-07 18:50 | 33.42783 | -84.66060 | 14186 ft | 353 kts | 156° |
| 2026-05-07 18:51 | 33.40863 | -84.64130 | 14458 ft | 382 kts | 137° |
| 2026-05-07 18:51 | 33.39342 | -84.61389 | 14583 ft | 408 kts | 124° |
| 2026-05-07 18:51 | 33.37908 | -84.58320 | 14723 ft | 425 kts | 124° |
| 2026-05-07 18:51 | 33.36448 | -84.55236 | 14849 ft | 438 kts | 124° |
| 2026-05-07 18:52 | 33.34917 | -84.52036 | 15151 ft | 446 kts | 125° |
| 2026-05-07 18:52 | 33.33361 | -84.48808 | 15569 ft | 451 kts | 126° |
| 2026-05-07 18:52 | 33.31783 | -84.45548 | 15999 ft | 455 kts | 126° |
| 2026-05-07 18:52 | 33.30193 | -84.42262 | 16415 ft | 458 kts | 126° |
| 2026-05-07 18:53 | 33.28592 | -84.38962 | 16786 ft | 461 kts | 127° |
| 2026-05-07 18:53 | 33.26975 | -84.35632 | 17264 ft | 465 kts | 127° |
| 2026-05-07 18:53 | 33.25345 | -84.32273 | 17668 ft | 469 kts | 127° |
| 2026-05-07 18:53 | 33.23705 | -84.28887 | 18064 ft | 472 kts | 127° |
| 2026-05-07 18:54 | 33.22058 | -84.25490 | 18419 ft | 475 kts | 127° |
| 2026-05-07 18:54 | 33.20396 | -84.22063 | 18759 ft | 477 kts | 127° |
| 2026-05-07 18:54 | 33.18728 | -84.18630 | 19107 ft | 479 kts | 127° |
| 2026-05-07 18:54 | 33.17052 | -84.15191 | 19456 ft | 481 kts | 127° |
| 2026-05-07 18:55 | 33.15366 | -84.11731 | 19814 ft | 483 kts | 127° |
| 2026-05-07 18:55 | 33.13679 | -84.08268 | 20163 ft | 484 kts | 127° |
| 2026-05-07 18:55 | 33.11983 | -84.04789 | 20504 ft | 486 kts | 127° |
| 2026-05-07 18:55 | 33.10249 | -84.01326 | 20844 ft | 484 kts | 131° |
| 2026-05-07 18:56 | 33.08212 | -83.98170 | 21175 ft | 476 kts | 141° |
| 2026-05-07 18:56 | 33.05860 | -83.95448 | 21509 ft | 467 kts | 150° |
| 2026-05-07 18:56 | 33.03280 | -83.93162 | 21849 ft | 461 kts | 155° |
| 2026-05-07 18:56 | 33.00647 | -83.90977 | 22121 ft | 463 kts | 154° |
| 2026-05-07 18:57 | 32.98001 | -83.88776 | 22484 ft | 464 kts | 154° |
| 2026-05-07 18:57 | 32.95356 | -83.86570 | 22814 ft | 465 kts | 154° |
| 2026-05-07 18:57 | 32.92707 | -83.84356 | 23139 ft | 467 kts | 154° |
| 2026-05-07 18:57 | 32.90043 | -83.82123 | 23461 ft | 469 kts | 154° |
| 2026-05-07 18:58 | 32.87368 | -83.79883 | 23723 ft | 471 kts | 154° |
| 2026-05-07 18:58 | 32.84686 | -83.77641 | 23980 ft | 472 kts | 154° |
| 2026-05-07 18:58 | 32.81995 | -83.75401 | 24228 ft | 474 kts | 154° |
| 2026-05-07 18:58 | 32.79286 | -83.73151 | 24479 ft | 475 kts | 155° |
| 2026-05-07 18:59 | 32.76576 | -83.70903 | 24730 ft | 477 kts | 155° |
| 2026-05-07 18:59 | 32.73852 | -83.68645 | 24974 ft | 478 kts | 155° |
| 2026-05-07 18:59 | 32.71106 | -83.66371 | 25202 ft | 480 kts | 155° |
| 2026-05-07 18:59 | 32.68367 | -83.64097 | 25460 ft | 482 kts | 154° |
| 2026-05-07 19:00 | 32.65641 | -83.61769 | 25698 ft | 485 kts | 153° |
| 2026-05-07 19:00 | 32.62926 | -83.59375 | 25938 ft | 487 kts | 153° |
| 2026-05-07 19:00 | 32.60213 | -83.56940 | 26178 ft | 490 kts | 152° |
| 2026-05-07 19:00 | 32.57495 | -83.54491 | 26413 ft | 491 kts | 152° |
| 2026-05-07 19:01 | 32.54771 | -83.52046 | 26662 ft | 492 kts | 152° |
| 2026-05-07 19:01 | 32.52032 | -83.49608 | 26923 ft | 493 kts | 153° |
| 2026-05-07 19:01 | 32.49282 | -83.47179 | 27170 ft | 494 kts | 153° |
| 2026-05-07 19:01 | 32.46552 | -83.44780 | 27397 ft | 495 kts | 153° |
| 2026-05-07 19:02 | 32.43781 | -83.42350 | 27594 ft | 496 kts | 152° |
| 2026-05-07 19:02 | 32.41002 | -83.39915 | 27836 ft | 497 kts | 152° |
| 2026-05-07 19:02 | 32.38227 | -83.37483 | 28069 ft | 498 kts | 152° |
| 2026-05-07 19:02 | 32.35442 | -83.35044 | 28293 ft | 499 kts | 152° |
| 2026-05-07 19:03 | 32.32647 | -83.32597 | 28537 ft | 500 kts | 152° |
| 2026-05-07 19:03 | 32.29837 | -83.30137 | 28756 ft | 502 kts | 151° |
| 2026-05-07 19:03 | 32.27032 | -83.27683 | 28970 ft | 503 kts | 151° |
| 2026-05-07 19:03 | 32.24212 | -83.25218 | 29188 ft | 504 kts | 151° |
| 2026-05-07 19:04 | 32.21393 | -83.22755 | 29469 ft | 503 kts | 152° |
| 2026-05-07 19:04 | 32.18581 | -83.20300 | 29764 ft | 502 kts | 152° |
| 2026-05-07 19:04 | 32.15775 | -83.17854 | 30013 ft | 501 kts | 151° |
| 2026-05-07 19:04 | 32.12973 | -83.15413 | 30272 ft | 500 kts | 150° |
| 2026-05-07 19:05 | 32.10170 | -83.12970 | 30477 ft | 500 kts | 150° |
| 2026-05-07 19:05 | 32.07372 | -83.10534 | 30700 ft | 500 kts | 150° |
| 2026-05-07 19:05 | 32.04579 | -83.08104 | 30944 ft | 499 kts | 150° |
| 2026-05-07 19:05 | 32.01786 | -83.05674 | 31157 ft | 498 kts | 150° |
| 2026-05-07 19:06 | 31.99000 | -83.03254 | 31408 ft | 497 kts | 150° |
| 2026-05-07 19:06 | 31.93440 | -82.98434 | 31907 ft | 496 kts | 150° |
| 2026-05-07 19:06 | 31.90665 | -82.96033 | 32167 ft | 495 kts | 150° |
| 2026-05-07 19:07 | 31.87896 | -82.93637 | 32414 ft | 494 kts | 150° |
| 2026-05-07 19:07 | 31.85127 | -82.91242 | 32607 ft | 494 kts | 150° |
| 2026-05-07 19:07 | 31.82350 | -82.88842 | 32810 ft | 495 kts | 150° |
| 2026-05-07 19:07 | 31.79579 | -82.86445 | 33032 ft | 494 kts | 150° |
| 2026-05-07 19:08 | 31.76809 | -82.84070 | 33258 ft | 493 kts | 150° |
| 2026-05-07 19:08 | 31.74012 | -82.81728 | 33492 ft | 492 kts | 151° |
| 2026-05-07 19:08 | 31.71213 | -82.79430 | 33724 ft | 491 kts | 152° |
| 2026-05-07 19:08 | 31.68406 | -82.77148 | 33924 ft | 491 kts | 152° |
| 2026-05-07 19:09 | 31.62831 | -82.72598 | 34007 ft | 490 kts | 151° |
| 2026-05-07 19:09 | 31.57257 | -82.68016 | 33967 ft | 489 kts | 151° |
| 2026-05-07 19:10 | 31.51689 | -82.63424 | 33981 ft | 489 kts | 151° |
| 2026-05-07 19:10 | 31.46122 | -82.58842 | 33980 ft | 489 kts | 151° |
| 2026-05-07 19:11 | 31.40548 | -82.54272 | 33986 ft | 489 kts | 151° |
| 2026-05-07 19:11 | 31.34968 | -82.49713 | 33995 ft | 489 kts | 151° |
| 2026-05-07 19:12 | 31.29390 | -82.45154 | 33967 ft | 489 kts | 151° |
| 2026-05-07 19:12 | 31.23813 | -82.40595 | 33972 ft | 489 kts | 151° |
| 2026-05-07 19:13 | 31.18219 | -82.36032 | 33969 ft | 490 kts | 152° |
| 2026-05-07 19:13 | 31.12616 | -82.31481 | 33984 ft | 491 kts | 152° |
| 2026-05-07 19:14 | 31.07040 | -82.26966 | 34007 ft | 491 kts | 152° |
| 2026-05-07 19:14 | 31.01425 | -82.22410 | 34047 ft | 491 kts | 152° |
| 2026-05-07 19:15 | 30.95817 | -82.17856 | 34030 ft | 493 kts | 152° |
| 2026-05-07 19:15 | 30.90138 | -82.13262 | 34068 ft | 495 kts | 152° |
| 2026-05-07 19:16 | 30.84504 | -82.08720 | 34056 ft | 496 kts | 152° |
| 2026-05-07 19:16 | 30.78822 | -82.04131 | 34088 ft | 497 kts | 152° |
| 2026-05-07 19:17 | 30.73132 | -81.99536 | 34091 ft | 497 kts | 152° |
| 2026-05-07 19:17 | 30.67441 | -81.94953 | 34043 ft | 498 kts | 152° |
| 2026-05-07 19:18 | 30.61723 | -81.90370 | 34023 ft | 500 kts | 152° |
| 2026-05-07 19:18 | 30.55992 | -81.85775 | 34013 ft | 501 kts | 152° |
| 2026-05-07 19:19 | 30.50248 | -81.81179 | 34008 ft | 502 kts | 152° |
| 2026-05-07 19:19 | 30.44491 | -81.76576 | 34010 ft | 502 kts | 152° |
| 2026-05-07 19:20 | 30.38775 | -81.72007 | 34019 ft | 502 kts | 152° |
| 2026-05-07 19:20 | 30.33022 | -81.67416 | 34066 ft | 502 kts | 153° |
| 2026-05-07 19:21 | 30.27268 | -81.62838 | 34050 ft | 502 kts | 152° |
| 2026-05-07 19:21 | 30.21509 | -81.58263 | 34034 ft | 502 kts | 152° |
| 2026-05-07 19:22 | 30.15747 | -81.53693 | 34026 ft | 502 kts | 152° |
| 2026-05-07 19:22 | 30.09986 | -81.49120 | 34006 ft | 502 kts | 152° |
| 2026-05-07 19:23 | 30.04243 | -81.44563 | 34042 ft | 500 kts | 153° |
| 2026-05-07 19:23 | 29.98512 | -81.40034 | 34046 ft | 499 kts | 153° |
| 2026-05-07 19:24 | 29.92787 | -81.35514 | 34047 ft | 498 kts | 153° |
| 2026-05-07 19:24 | 29.87071 | -81.31009 | 34043 ft | 497 kts | 153° |
| 2026-05-07 19:25 | 29.81385 | -81.26541 | 34022 ft | 497 kts | 152° |
| 2026-05-07 19:25 | 29.75677 | -81.22061 | 34034 ft | 496 kts | 152° |
| 2026-05-07 19:26 | 29.69979 | -81.17581 | 34020 ft | 495 kts | 152° |
| 2026-05-07 19:26 | 29.64289 | -81.13116 | 34020 ft | 495 kts | 152° |
| 2026-05-07 19:27 | 29.58589 | -81.08659 | 34021 ft | 494 kts | 153° |
| 2026-05-07 19:27 | 29.52902 | -81.04221 | 34043 ft | 494 kts | 153° |
| 2026-05-07 19:28 | 29.47216 | -80.99789 | 34026 ft | 494 kts | 152° |
| 2026-05-07 19:28 | 29.41547 | -80.95361 | 34014 ft | 493 kts | 152° |
| 2026-05-07 19:29 | 29.35875 | -80.90944 | 34022 ft | 492 kts | 152° |
| 2026-05-07 19:29 | 29.30203 | -80.86533 | 34009 ft | 493 kts | 152° |
| 2026-05-07 19:30 | 29.24529 | -80.82123 | 34005 ft | 493 kts | 152° |
| 2026-05-07 19:30 | 29.18859 | -80.77733 | 33996 ft | 493 kts | 152° |
| 2026-05-07 19:31 | 29.13212 | -80.73366 | 34007 ft | 492 kts | 152° |
| 2026-05-07 19:31 | 29.07540 | -80.68983 | 34012 ft | 492 kts | 152° |
| 2026-05-07 19:32 | 29.01865 | -80.64602 | 34017 ft | 492 kts | 152° |
| 2026-05-07 19:32 | 28.96190 | -80.60222 | 34018 ft | 492 kts | 152° |
| 2026-05-07 19:33 | 28.91473 | -80.56590 | 33992 ft | 492 kts | 152° |
| 2026-05-07 19:33 | 28.85799 | -80.52230 | 34000 ft | 491 kts | 151° |
| 2026-05-07 19:34 | 28.80124 | -80.47868 | 34004 ft | 492 kts | 151° |
| 2026-05-07 19:34 | 28.74455 | -80.43502 | 34004 ft | 493 kts | 149° |
| 2026-05-07 19:35 | 28.69422 | -80.38091 | 34004 ft | 504 kts | 131° |
| 2026-05-07 19:35 | 28.65557 | -80.31396 | 34003 ft | 507 kts | 125° |
| 2026-05-07 19:36 | 28.61770 | -80.24625 | 34005 ft | 507 kts | 126° |
| 2026-05-07 19:36 | 28.57965 | -80.17862 | 34007 ft | 507 kts | 126° |
| 2026-05-07 19:37 | 28.54165 | -80.11121 | 34023 ft | 506 kts | 125° |
| 2026-05-07 19:37 | 28.50369 | -80.04376 | 34027 ft | 506 kts | 125° |
| 2026-05-07 19:38 | 28.46605 | -79.97688 | 34028 ft | 505 kts | 125° |
| 2026-05-07 19:38 | 28.42815 | -79.90962 | 34028 ft | 505 kts | 125° |
| 2026-05-07 19:39 | 28.39019 | -79.84244 | 34035 ft | 505 kts | 125° |
| 2026-05-07 19:39 | 28.35214 | -79.77518 | 34034 ft | 505 kts | 125° |
| 2026-05-07 19:40 | 28.31422 | -79.70820 | 34038 ft | 505 kts | 125° |
| 2026-05-07 19:40 | 28.27610 | -79.64116 | 34038 ft | 505 kts | 125° |
| 2026-05-07 19:41 | 28.23807 | -79.57432 | 34036 ft | 504 kts | 125° |
| 2026-05-07 19:41 | 28.20010 | -79.50774 | 34049 ft | 503 kts | 125° |
| 2026-05-07 19:42 | 28.16209 | -79.44113 | 34049 ft | 502 kts | 125° |
| 2026-05-07 19:42 | 28.12448 | -79.37522 | 34053 ft | 501 kts | 125° |
| 2026-05-07 19:43 | 28.08658 | -79.30893 | 34044 ft | 501 kts | 125° |
| 2026-05-07 19:43 | 28.04863 | -79.24276 | 34046 ft | 501 kts | 125° |
| 2026-05-07 19:44 | 28.01059 | -79.17657 | 34045 ft | 501 kts | 125° |
| 2026-05-07 19:44 | 27.97259 | -79.11041 | 34047 ft | 501 kts | 125° |
| 2026-05-07 19:45 | 27.93459 | -79.04437 | 34050 ft | 501 kts | 125° |
| 2026-05-07 19:45 | 27.89648 | -78.97842 | 34047 ft | 501 kts | 125° |
| 2026-05-07 19:46 | 27.85834 | -78.91259 | 34053 ft | 500 kts | 125° |
| 2026-05-07 19:46 | 27.82022 | -78.84683 | 34054 ft | 500 kts | 125° |
| 2026-05-07 19:47 | 27.78218 | -78.78116 | 34055 ft | 500 kts | 125° |
| 2026-05-07 19:47 | 27.74436 | -78.71598 | 34053 ft | 499 kts | 125° |
| 2026-05-07 19:48 | 27.70624 | -78.65037 | 34052 ft | 499 kts | 124° |
| 2026-05-07 19:48 | 27.66814 | -78.58491 | 34051 ft | 499 kts | 124° |
| 2026-05-07 19:49 | 27.62996 | -78.51948 | 34050 ft | 499 kts | 125° |
| 2026-05-07 19:49 | 27.59177 | -78.45402 | 34050 ft | 499 kts | 124° |
| 2026-05-07 19:50 | 27.55361 | -78.38868 | 34051 ft | 499 kts | 124° |
| 2026-05-07 19:50 | 27.51540 | -78.32342 | 34051 ft | 498 kts | 124° |
| 2026-05-07 19:51 | 27.47714 | -78.25831 | 34065 ft | 498 kts | 124° |
| 2026-05-07 19:51 | 27.43892 | -78.19329 | 34054 ft | 498 kts | 124° |
| 2026-05-07 19:52 | 27.40103 | -78.12876 | 34058 ft | 498 kts | 124° |
| 2026-05-07 19:52 | 27.36283 | -78.06384 | 34044 ft | 498 kts | 124° |
| 2026-05-07 19:53 | 27.32456 | -77.99893 | 34059 ft | 497 kts | 124° |
| 2026-05-07 19:53 | 27.28623 | -77.93407 | 34056 ft | 497 kts | 124° |
| 2026-05-07 19:54 | 27.24792 | -77.86932 | 34043 ft | 498 kts | 124° |
| 2026-05-07 19:54 | 27.20955 | -77.80457 | 34063 ft | 498 kts | 124° |
| 2026-05-07 19:55 | 27.17120 | -77.73995 | 34052 ft | 498 kts | 124° |
| 2026-05-07 19:55 | 27.13280 | -77.67525 | 34041 ft | 497 kts | 124° |
| 2026-05-07 19:56 | 27.09431 | -77.61071 | 34050 ft | 497 kts | 125° |
| 2026-05-07 19:56 | 27.05603 | -77.54669 | 34052 ft | 497 kts | 124° |
| 2026-05-07 19:57 | 27.01756 | -77.48225 | 34044 ft | 497 kts | 124° |
| 2026-05-07 19:57 | 26.97912 | -77.41788 | 34054 ft | 497 kts | 124° |
| 2026-05-07 19:58 | 26.94066 | -77.35355 | 34049 ft | 497 kts | 124° |
| 2026-05-07 19:58 | 26.90215 | -77.28921 | 34063 ft | 497 kts | 124° |
| 2026-05-07 19:59 | 26.86364 | -77.22500 | 34050 ft | 496 kts | 124° |
| 2026-05-07 19:59 | 26.82515 | -77.16094 | 34054 ft | 496 kts | 124° |
| 2026-05-07 20:00 | 26.78658 | -77.09696 | 34059 ft | 495 kts | 124° |
| 2026-05-07 20:00 | 26.74826 | -77.03336 | 34056 ft | 495 kts | 124° |
| 2026-05-07 20:01 | 26.70970 | -76.96948 | 34063 ft | 495 kts | 124° |
| 2026-05-07 20:01 | 26.67104 | -76.90571 | 34061 ft | 495 kts | 124° |
| 2026-05-07 20:02 | 26.63244 | -76.84200 | 34052 ft | 495 kts | 124° |
| 2026-05-07 20:02 | 26.59380 | -76.77826 | 34060 ft | 495 kts | 124° |
| 2026-05-07 20:03 | 26.55514 | -76.71446 | 34054 ft | 495 kts | 124° |
| 2026-05-07 20:03 | 26.51659 | -76.65087 | 34057 ft | 495 kts | 124° |
| 2026-05-07 20:04 | 26.47793 | -76.58741 | 34056 ft | 494 kts | 124° |
| 2026-05-07 20:04 | 26.43914 | -76.52401 | 34058 ft | 494 kts | 124° |
| 2026-05-07 20:05 | 26.40042 | -76.46063 | 34064 ft | 494 kts | 124° |
| 2026-05-07 20:05 | 26.36195 | -76.39780 | 34058 ft | 493 kts | 124° |
| 2026-05-07 20:06 | 26.32326 | -76.33463 | 34057 ft | 493 kts | 124° |
| 2026-05-07 20:06 | 26.28466 | -76.27152 | 34058 ft | 493 kts | 124° |
| 2026-05-07 20:07 | 26.24591 | -76.20833 | 34064 ft | 493 kts | 124° |
| 2026-05-07 20:07 | 26.20710 | -76.14542 | 34056 ft | 493 kts | 125° |
| 2026-05-07 20:08 | 26.16834 | -76.08250 | 34057 ft | 492 kts | 124° |
| 2026-05-07 20:08 | 26.12980 | -76.01984 | 34070 ft | 492 kts | 124° |
| 2026-05-07 20:09 | 26.09112 | -75.95713 | 34069 ft | 492 kts | 124° |
| 2026-05-07 20:10 | 26.03302 | -75.86312 | 34070 ft | 491 kts | 124° |
| 2026-05-07 20:10 | 25.99397 | -75.80018 | 34062 ft | 491 kts | 124° |
| 2026-05-07 20:11 | 25.95541 | -75.73808 | 34058 ft | 491 kts | 124° |
| 2026-05-07 20:11 | 25.91655 | -75.67554 | 34059 ft | 491 kts | 124° |
| 2026-05-07 20:12 | 25.87769 | -75.61300 | 34061 ft | 491 kts | 124° |
| 2026-05-07 20:12 | 25.83885 | -75.55054 | 34057 ft | 491 kts | 124° |
| 2026-05-07 20:13 | 25.79991 | -75.48815 | 34059 ft | 491 kts | 124° |
| 2026-05-07 20:13 | 25.76101 | -75.42588 | 34060 ft | 490 kts | 124° |
| 2026-05-07 20:14 | 25.72214 | -75.36384 | 34062 ft | 490 kts | 124° |
| 2026-05-07 20:14 | 25.68321 | -75.30156 | 34062 ft | 490 kts | 124° |
| 2026-05-07 20:15 | 25.64450 | -75.23982 | 34059 ft | 490 kts | 124° |
| 2026-05-07 20:15 | 25.60521 | -75.17739 | 34063 ft | 491 kts | 124° |
| 2026-05-07 20:16 | 25.56648 | -75.11583 | 34056 ft | 491 kts | 124° |
| 2026-05-07 20:16 | 25.52744 | -75.05383 | 34065 ft | 490 kts | 124° |
| 2026-05-07 20:17 | 25.48834 | -74.99178 | 34071 ft | 491 kts | 124° |
| 2026-05-07 20:17 | 25.44938 | -74.92990 | 34056 ft | 490 kts | 124° |
| 2026-05-07 20:18 | 25.41036 | -74.86808 | 34059 ft | 490 kts | 124° |
| 2026-05-07 20:18 | 25.37122 | -74.80629 | 34065 ft | 490 kts | 124° |
| 2026-05-07 20:19 | 25.33222 | -74.74468 | 34073 ft | 490 kts | 124° |
| 2026-05-07 20:19 | 25.29309 | -74.68301 | 34065 ft | 489 kts | 124° |
| 2026-05-07 20:20 | 25.25398 | -74.62146 | 34063 ft | 489 kts | 124° |
| 2026-05-07 20:20 | 25.21481 | -74.56000 | 34066 ft | 489 kts | 124° |
| 2026-05-07 20:21 | 25.17564 | -74.49856 | 34068 ft | 489 kts | 124° |
| 2026-05-07 20:21 | 25.13671 | -74.43741 | 34071 ft | 489 kts | 124° |
| 2026-05-07 20:22 | 25.10404 | -74.38617 | 34057 ft | 489 kts | 124° |
| 2026-05-07 20:22 | 25.06482 | -74.32467 | 34075 ft | 488 kts | 124° |
| 2026-05-07 20:23 | 25.02582 | -74.26374 | 34075 ft | 487 kts | 124° |
| 2026-05-07 20:23 | 24.98671 | -74.20290 | 34074 ft | 487 kts | 124° |
| 2026-05-07 20:24 | 24.94743 | -74.14184 | 34066 ft | 487 kts | 124° |
| 2026-05-07 20:24 | 24.90855 | -74.08127 | 34065 ft | 487 kts | 124° |
| 2026-05-07 20:25 | 24.86945 | -74.02027 | 34068 ft | 487 kts | 124° |
| 2026-05-07 20:25 | 24.83030 | -73.95942 | 34068 ft | 487 kts | 124° |
| 2026-05-07 20:26 | 24.79105 | -73.89873 | 34067 ft | 487 kts | 124° |
| 2026-05-07 20:26 | 24.75167 | -73.83797 | 34058 ft | 488 kts | 124° |
| 2026-05-07 20:27 | 24.71236 | -73.77714 | 34058 ft | 487 kts | 124° |
| 2026-05-07 20:27 | 24.67320 | -73.71644 | 34064 ft | 487 kts | 124° |
| 2026-05-07 20:28 | 24.63389 | -73.65580 | 34069 ft | 487 kts | 124° |
| 2026-05-07 20:28 | 24.59450 | -73.59523 | 34068 ft | 487 kts | 124° |
| 2026-05-07 20:29 | 24.55782 | -73.53417 | 34069 ft | 484 kts | 116° |
| 2026-05-07 20:30 | 24.55291 | -73.52399 | 34062 ft | 485 kts | 116° |
| 2026-05-07 20:30 | 24.52143 | -73.45850 | 34061 ft | 485 kts | 116° |
| 2026-05-07 20:31 | 24.49011 | -73.39336 | 34061 ft | 485 kts | 116° |
| 2026-05-07 20:31 | 24.47085 | -73.35353 | 34058 ft | 485 kts | 116° |
| 2026-05-07 20:32 | 24.44001 | -73.28984 | 34070 ft | 485 kts | 116° |
| 2026-05-07 20:32 | 24.40836 | -73.22446 | 34066 ft | 485 kts | 116° |
| 2026-05-07 20:33 | 24.37667 | -73.15908 | 34069 ft | 485 kts | 116° |
| 2026-05-07 20:33 | 24.34503 | -73.09383 | 34060 ft | 484 kts | 116° |
| 2026-05-07 20:34 | 24.31332 | -73.02877 | 34067 ft | 484 kts | 116° |
| 2026-05-07 20:34 | 24.28154 | -72.96350 | 34071 ft | 484 kts | 116° |
| 2026-05-07 20:35 | 24.25009 | -72.89892 | 34076 ft | 483 kts | 116° |
| 2026-05-07 20:35 | 24.21826 | -72.83386 | 34076 ft | 482 kts | 116° |
| 2026-05-07 20:36 | 24.18662 | -72.76921 | 34073 ft | 482 kts | 116° |
| 2026-05-07 20:36 | 24.15516 | -72.70475 | 34075 ft | 481 kts | 116° |
| 2026-05-07 20:37 | 24.12353 | -72.64017 | 34064 ft | 481 kts | 116° |
| 2026-05-07 20:37 | 24.09189 | -72.57566 | 34077 ft | 481 kts | 116° |
| 2026-05-07 20:38 | 24.06016 | -72.51116 | 34068 ft | 481 kts | 116° |
| 2026-05-07 20:38 | 24.02845 | -72.44675 | 34077 ft | 481 kts | 116° |
| 2026-05-07 20:39 | 23.99675 | -72.38234 | 34064 ft | 480 kts | 116° |
| 2026-05-07 20:39 | 23.96501 | -72.31799 | 34071 ft | 480 kts | 116° |
| 2026-05-07 20:40 | 23.93322 | -72.25376 | 34079 ft | 480 kts | 116° |
| 2026-05-07 20:40 | 23.90142 | -72.18960 | 34074 ft | 480 kts | 116° |
| 2026-05-07 20:41 | 23.86975 | -72.12567 | 34067 ft | 480 kts | 116° |
| 2026-05-07 20:41 | 23.83801 | -72.06163 | 34066 ft | 480 kts | 116° |
| 2026-05-07 20:42 | 23.80615 | -71.99740 | 34061 ft | 480 kts | 116° |
| 2026-05-07 20:42 | 23.77435 | -71.93330 | 34068 ft | 480 kts | 116° |
| 2026-05-07 20:43 | 23.74237 | -71.86933 | 34079 ft | 480 kts | 116° |
| 2026-05-07 20:43 | 23.71037 | -71.80537 | 34069 ft | 480 kts | 116° |
| 2026-05-07 20:44 | 23.67856 | -71.74150 | 34072 ft | 479 kts | 116° |
| 2026-05-07 20:44 | 23.64669 | -71.67763 | 34070 ft | 479 kts | 116° |
| 2026-05-07 20:45 | 23.61469 | -71.61377 | 34070 ft | 479 kts | 117° |
| 2026-05-07 20:45 | 23.58265 | -71.55005 | 34079 ft | 479 kts | 116° |
| 2026-05-07 20:46 | 23.55064 | -71.48635 | 34080 ft | 478 kts | 116° |
| 2026-05-07 20:46 | 23.51881 | -71.42278 | 34083 ft | 478 kts | 116° |
| 2026-05-07 20:47 | 23.48690 | -71.35934 | 34071 ft | 477 kts | 116° |
| 2026-05-07 20:47 | 23.45491 | -71.29599 | 34073 ft | 477 kts | 117° |
| 2026-05-07 20:48 | 23.42316 | -71.23309 | 34064 ft | 477 kts | 117° |
| 2026-05-07 20:48 | 23.39116 | -71.16979 | 34074 ft | 477 kts | 117° |
| 2026-05-07 20:49 | 23.35920 | -71.10654 | 34068 ft | 477 kts | 117° |
| 2026-05-07 20:49 | 23.32698 | -71.04293 | 34067 ft | 477 kts | 117° |
| 2026-05-07 20:50 | 23.29519 | -70.98020 | 34076 ft | 477 kts | 117° |
| 2026-05-07 20:50 | 23.26291 | -70.91666 | 34058 ft | 477 kts | 117° |
| 2026-05-07 20:51 | 23.23099 | -70.85395 | 34070 ft | 477 kts | 117° |
| 2026-05-07 20:51 | 23.19885 | -70.79092 | 34079 ft | 476 kts | 117° |
| 2026-05-07 20:52 | 23.16680 | -70.72798 | 34068 ft | 476 kts | 117° |
| 2026-05-07 20:52 | 23.13475 | -70.66517 | 34071 ft | 475 kts | 117° |
| 2026-05-07 20:53 | 23.10258 | -70.60219 | 34068 ft | 475 kts | 117° |
| 2026-05-07 20:53 | 23.07061 | -70.53971 | 34075 ft | 475 kts | 117° |
| 2026-05-07 20:54 | 23.03850 | -70.47691 | 34057 ft | 475 kts | 117° |
| 2026-05-07 20:54 | 23.00634 | -70.41419 | 34053 ft | 476 kts | 117° |
| 2026-05-07 20:55 | 22.97404 | -70.35149 | 34052 ft | 476 kts | 117° |
| 2026-05-07 20:55 | 22.94177 | -70.28878 | 34054 ft | 476 kts | 117° |
| 2026-05-07 20:56 | 22.90947 | -70.22596 | 34055 ft | 476 kts | 117° |
| 2026-05-07 20:56 | 22.87719 | -70.16330 | 34077 ft | 476 kts | 117° |
| 2026-05-07 20:57 | 22.84492 | -70.10077 | 34071 ft | 475 kts | 117° |
| 2026-05-07 20:57 | 22.81276 | -70.03835 | 34077 ft | 474 kts | 117° |
| 2026-05-07 20:58 | 22.78049 | -69.97605 | 34063 ft | 474 kts | 118° |
| 2026-05-07 20:58 | 22.74820 | -69.91386 | 34067 ft | 473 kts | 117° |
| 2026-05-07 20:59 | 22.71601 | -69.85187 | 34087 ft | 471 kts | 117° |
| 2026-05-07 20:59 | 22.68392 | -69.79013 | 34086 ft | 469 kts | 117° |
| 2026-05-07 21:00 | 22.65200 | -69.72876 | 34078 ft | 467 kts | 117° |
| 2026-05-07 21:00 | 22.62020 | -69.66754 | 34083 ft | 466 kts | 117° |
| 2026-05-07 21:01 | 22.58856 | -69.60690 | 34082 ft | 465 kts | 117° |
| 2026-05-07 21:01 | 22.55677 | -69.54589 | 34063 ft | 465 kts | 117° |
| 2026-05-07 21:02 | 22.52501 | -69.48503 | 34074 ft | 464 kts | 116° |
| 2026-05-07 21:02 | 22.49317 | -69.42430 | 34073 ft | 464 kts | 116° |
| 2026-05-07 21:03 | 22.46142 | -69.36362 | 34070 ft | 463 kts | 116° |
| 2026-05-07 21:03 | 22.42961 | -69.30298 | 34066 ft | 463 kts | 116° |
| 2026-05-07 21:04 | 22.39782 | -69.24242 | 34064 ft | 463 kts | 116° |
| 2026-05-07 21:04 | 22.36601 | -69.18195 | 34073 ft | 463 kts | 116° |
| 2026-05-07 21:05 | 22.33424 | -69.12150 | 34082 ft | 462 kts | 115° |
| 2026-05-07 21:05 | 22.30278 | -69.06167 | 34083 ft | 460 kts | 115° |
| 2026-05-07 21:06 | 22.27119 | -69.00182 | 34077 ft | 459 kts | 115° |
| 2026-05-07 21:06 | 22.23956 | -68.94207 | 34073 ft | 458 kts | 115° |
| 2026-05-07 21:07 | 22.20802 | -68.88221 | 34069 ft | 458 kts | 115° |
| 2026-05-07 21:07 | 22.17653 | -68.82250 | 34066 ft | 458 kts | 115° |
| 2026-05-07 21:08 | 22.14486 | -68.76285 | 34061 ft | 458 kts | 115° |
| 2026-05-07 21:08 | 22.11853 | -68.71335 | 34061 ft | 458 kts | 115° |
| 2026-05-07 21:09 | 22.08686 | -68.65366 | 34062 ft | 458 kts | 115° |
| 2026-05-07 21:09 | 22.05530 | -68.59430 | 34060 ft | 458 kts | 115° |
| 2026-05-07 21:10 | 22.01836 | -68.52483 | 34074 ft | 458 kts | 114° |
| 2026-05-07 21:10 | 21.99180 | -68.47484 | 34065 ft | 459 kts | 114° |
| 2026-05-07 21:11 | 21.95998 | -68.41529 | 34057 ft | 459 kts | 114° |
| 2026-05-07 21:11 | 21.91240 | -68.32630 | 34067 ft | 458 kts | 114° |
| 2026-05-07 21:12 | 21.88066 | -68.26676 | 34066 ft | 458 kts | 114° |
| 2026-05-07 21:12 | 21.84886 | -68.20739 | 34066 ft | 458 kts | 114° |
| 2026-05-07 21:13 | 21.81709 | -68.14813 | 34085 ft | 456 kts | 114° |
| 2026-05-07 21:13 | 21.78549 | -68.08900 | 34082 ft | 455 kts | 114° |
| 2026-05-07 21:14 | 21.75375 | -68.03001 | 34078 ft | 454 kts | 114° |
| 2026-05-07 21:14 | 21.72226 | -67.97150 | 34073 ft | 453 kts | 114° |
| 2026-05-07 21:15 | 21.69080 | -67.91303 | 34065 ft | 453 kts | 114° |
| 2026-05-07 21:15 | 21.65921 | -67.85446 | 34063 ft | 453 kts | 114° |
| 2026-05-07 21:16 | 21.62747 | -67.79568 | 34062 ft | 453 kts | 114° |
| 2026-05-07 21:16 | 21.59603 | -67.73741 | 34062 ft | 453 kts | 114° |
| 2026-05-07 21:17 | 21.56427 | -67.67869 | 34061 ft | 453 kts | 114° |
| 2026-05-07 21:17 | 21.53278 | -67.62043 | 34058 ft | 453 kts | 114° |
| 2026-05-07 21:18 | 21.50113 | -67.56210 | 34073 ft | 452 kts | 114° |
| 2026-05-07 21:18 | 21.46949 | -67.50383 | 34085 ft | 451 kts | 113° |
| 2026-05-07 21:19 | 21.43797 | -67.44572 | 34081 ft | 450 kts | 113° |
| 2026-05-07 21:19 | 21.40657 | -67.38773 | 34076 ft | 449 kts | 113° |
| 2026-05-07 21:20 | 21.37512 | -67.32985 | 34069 ft | 449 kts | 113° |
| 2026-05-07 21:20 | 21.34350 | -67.27207 | 34066 ft | 449 kts | 113° |
| 2026-05-07 21:21 | 21.31193 | -67.21434 | 34077 ft | 449 kts | 112° |
| 2026-05-07 21:21 | 21.27736 | -67.15823 | 34070 ft | 460 kts | 126° |
| 2026-05-07 21:22 | 21.25347 | -67.13494 | 34068 ft | 471 kts | 137° |
| 2026-05-07 21:22 | 21.22500 | -67.11704 | 34066 ft | 481 kts | 150° |
| 2026-05-07 21:22 | 21.16174 | -67.09285 | 34055 ft | 486 kts | 155° |
| 2026-05-07 21:23 | 21.09783 | -67.06907 | 34058 ft | 486 kts | 154° |
| 2026-05-07 21:23 | 21.03404 | -67.04506 | 34059 ft | 486 kts | 154° |
| 2026-05-07 21:24 | 20.97028 | -67.02111 | 34060 ft | 485 kts | 154° |
| 2026-05-07 21:24 | 20.90639 | -66.99731 | 34057 ft | 485 kts | 155° |
| 2026-05-07 21:25 | 20.84261 | -66.97354 | 34056 ft | 485 kts | 155° |
| 2026-05-07 21:25 | 20.77884 | -66.94976 | 34060 ft | 485 kts | 154° |
| 2026-05-07 21:26 | 20.71513 | -66.92592 | 34059 ft | 485 kts | 154° |
| 2026-05-07 21:26 | 20.65141 | -66.90225 | 34058 ft | 485 kts | 155° |
| 2026-05-07 21:27 | 20.58762 | -66.87865 | 34059 ft | 485 kts | 155° |
| 2026-05-07 21:27 | 20.52383 | -66.85495 | 34051 ft | 486 kts | 155° |
| 2026-05-07 21:28 | 20.45999 | -66.83128 | 34039 ft | 486 kts | 155° |
| 2026-05-07 21:28 | 20.39614 | -66.80752 | 34045 ft | 486 kts | 155° |
| 2026-05-07 21:29 | 20.33219 | -66.78389 | 33466 ft | 486 kts | 155° |
| 2026-05-07 21:29 | 20.30022 | -66.77208 | 32740 ft | 487 kts | 156° |
| 2026-05-07 21:29 | 20.26830 | -66.76026 | 32171 ft | 484 kts | 157° |
| 2026-05-07 21:30 | 20.23662 | -66.74855 | 31676 ft | 480 kts | 158° |
| 2026-05-07 21:30 | 20.20501 | -66.73686 | 31193 ft | 477 kts | 158° |
| 2026-05-07 21:30 | 20.17420 | -66.72547 | 30729 ft | 473 kts | 159° |
| 2026-05-07 21:30 | 20.14316 | -66.71402 | 30264 ft | 469 kts | 159° |
| 2026-05-07 21:31 | 20.11241 | -66.70268 | 29768 ft | 465 kts | 160° |
| 2026-05-07 21:31 | 20.08202 | -66.69146 | 29272 ft | 461 kts | 160° |
| 2026-05-07 21:31 | 20.05186 | -66.68036 | 28784 ft | 456 kts | 159° |
| 2026-05-07 21:31 | 20.02207 | -66.66941 | 28326 ft | 451 kts | 159° |
| 2026-05-07 21:32 | 19.99250 | -66.65854 | 27863 ft | 447 kts | 159° |
| 2026-05-07 21:32 | 19.96333 | -66.64778 | 27394 ft | 442 kts | 159° |
| 2026-05-07 21:32 | 19.93445 | -66.63707 | 26958 ft | 437 kts | 159° |
| 2026-05-07 21:32 | 19.90582 | -66.62646 | 26510 ft | 433 kts | 159° |
| 2026-05-07 21:33 | 19.87745 | -66.61602 | 26062 ft | 429 kts | 159° |
| 2026-05-07 21:33 | 19.84943 | -66.60573 | 25627 ft | 424 kts | 159° |
| 2026-05-07 21:33 | 19.82165 | -66.59554 | 25198 ft | 420 kts | 159° |
| 2026-05-07 21:33 | 19.79426 | -66.58544 | 24776 ft | 416 kts | 159° |
| 2026-05-07 21:34 | 19.76698 | -66.57540 | 24354 ft | 412 kts | 159° |
| 2026-05-07 21:34 | 19.74010 | -66.56553 | 23946 ft | 408 kts | 158° |
| 2026-05-07 21:34 | 19.71341 | -66.55574 | 23515 ft | 404 kts | 158° |
| 2026-05-07 21:34 | 19.68700 | -66.54602 | 23014 ft | 400 kts | 158° |
| 2026-05-07 21:35 | 19.66115 | -66.53651 | 22525 ft | 397 kts | 159° |
| 2026-05-07 21:35 | 19.63512 | -66.52696 | 22030 ft | 394 kts | 159° |
| 2026-05-07 21:35 | 19.60929 | -66.51747 | 21553 ft | 391 kts | 159° |
| 2026-05-07 21:35 | 19.58363 | -66.50806 | 21086 ft | 388 kts | 159° |
| 2026-05-07 21:36 | 19.55817 | -66.49872 | 20622 ft | 386 kts | 159° |
| 2026-05-07 21:36 | 19.53287 | -66.48946 | 20179 ft | 383 kts | 159° |
| 2026-05-07 21:36 | 19.50772 | -66.48027 | 19713 ft | 382 kts | 159° |
| 2026-05-07 21:36 | 19.48269 | -66.47114 | 19281 ft | 379 kts | 159° |
| 2026-05-07 21:37 | 19.45775 | -66.46203 | 18832 ft | 378 kts | 159° |
| 2026-05-07 21:37 | 19.43291 | -66.45293 | 18372 ft | 377 kts | 160° |
| 2026-05-07 21:37 | 19.40810 | -66.44384 | 17887 ft | 376 kts | 160° |
| 2026-05-07 21:37 | 19.38375 | -66.43492 | 17670 ft | 366 kts | 160° |
| 2026-05-07 21:38 | 19.36003 | -66.42625 | 17547 ft | 354 kts | 160° |
| 2026-05-07 21:38 | 19.33716 | -66.41788 | 17359 ft | 344 kts | 160° |
| 2026-05-07 21:38 | 19.31456 | -66.40964 | 17007 ft | 341 kts | 161° |
| 2026-05-07 21:38 | 19.29222 | -66.40151 | 16610 ft | 340 kts | 161° |
| 2026-05-07 21:39 | 19.26991 | -66.39336 | 16209 ft | 339 kts | 161° |
| 2026-05-07 21:39 | 19.24777 | -66.38527 | 15881 ft | 335 kts | 161° |
| 2026-05-07 21:39 | 19.22578 | -66.37725 | 15515 ft | 334 kts | 161° |
| 2026-05-07 21:39 | 19.20390 | -66.36928 | 15203 ft | 330 kts | 161° |
| 2026-05-07 21:40 | 19.18244 | -66.36146 | 14816 ft | 330 kts | 161° |
| 2026-05-07 21:40 | 19.16077 | -66.35356 | 14463 ft | 329 kts | 161° |
| 2026-05-07 21:40 | 19.13910 | -66.34564 | 14087 ft | 329 kts | 161° |
| 2026-05-07 21:40 | 19.11742 | -66.33772 | 13455 ft | 336 kts | 161° |
| 2026-05-07 21:41 | 19.09541 | -66.32780 | 12523 ft | 352 kts | 156° |
| 2026-05-07 21:41 | 19.07272 | -66.31694 | 11551 ft | 366 kts | 155° |
| 2026-05-07 21:41 | 19.04900 | -66.30559 | 10565 ft | 381 kts | 155° |
| 2026-05-07 21:41 | 19.02516 | -66.29420 | 10344 ft | 369 kts | 155° |
| 2026-05-07 21:42 | 19.00215 | -66.28323 | 10223 ft | 355 kts | 155° |
| 2026-05-07 21:42 | 18.98002 | -66.27270 | 10099 ft | 342 kts | 155° |
| 2026-05-07 21:42 | 18.95875 | -66.26259 | 9982 ft | 330 kts | 155° |
| 2026-05-07 21:42 | 18.93817 | -66.25280 | 9858 ft | 318 kts | 155° |
| 2026-05-07 21:43 | 18.91840 | -66.24339 | 9736 ft | 307 kts | 155° |
| 2026-05-07 21:43 | 18.89912 | -66.23420 | 9298 ft | 306 kts | 155° |
| 2026-05-07 21:43 | 18.87923 | -66.22472 | 8401 ft | 322 kts | 155° |
| 2026-05-07 21:43 | 18.85828 | -66.21473 | 7453 ft | 338 kts | 155° |
| 2026-05-07 21:44 | 18.83641 | -66.20430 | 6561 ft | 351 kts | 155° |
| 2026-05-07 21:44 | 18.81427 | -66.19379 | 6175 ft | 344 kts | 155° |
| 2026-05-07 21:44 | 18.79292 | -66.18367 | 6019 ft | 331 kts | 155° |
| 2026-05-07 21:44 | 18.77240 | -66.17395 | 5996 ft | 313 kts | 155° |
| 2026-05-07 21:45 | 18.75244 | -66.16676 | 6001 ft | 295 kts | 169° |
| 2026-05-07 21:45 | 18.73262 | -66.16523 | 5999 ft | 278 kts | 183° |
| 2026-05-07 21:45 | 18.71392 | -66.16733 | 5997 ft | 260 kts | 186° |
| 2026-05-07 21:45 | 18.69676 | -66.16934 | 5990 ft | 239 kts | 186° |
| 2026-05-07 21:46 | 18.68048 | -66.17119 | 6001 ft | 239 kts | 186° |
| 2026-05-07 21:46 | 18.66400 | -66.17305 | 6000 ft | 238 kts | 186° |
| 2026-05-07 21:46 | 18.64736 | -66.17495 | 5741 ft | 236 kts | 186° |
| 2026-05-07 21:46 | 18.63127 | -66.17678 | 5454 ft | 235 kts | 185° |
| 2026-05-07 21:47 | 18.61503 | -66.17863 | 5156 ft | 234 kts | 185° |
| 2026-05-07 21:47 | 18.59894 | -66.18048 | 4981 ft | 228 kts | 184° |
| 2026-05-07 21:47 | 18.58346 | -66.18227 | 4851 ft | 219 kts | 184° |
| 2026-05-07 21:47 | 18.56851 | -66.18399 | 4677 ft | 214 kts | 185° |
| 2026-05-07 21:48 | 18.55373 | -66.18536 | 4372 ft | 213 kts | 182° |
| 2026-05-07 21:48 | 18.53894 | -66.18658 | 4076 ft | 212 kts | 182° |
| 2026-05-07 21:48 | 18.52419 | -66.18760 | 3794 ft | 211 kts | 182° |
| 2026-05-07 21:48 | 18.51017 | -66.18857 | 3766 ft | 194 kts | 182° |
| 2026-05-07 21:49 | 18.49679 | -66.19027 | 3509 ft | 193 kts | 185° |
| 2026-05-07 21:49 | 18.48374 | -66.19226 | 3342 ft | 184 kts | 184° |
| 2026-05-07 21:49 | 18.47124 | -66.19402 | 3098 ft | 179 kts | 179° |
| 2026-05-07 21:49 | 18.45910 | -66.19251 | 3045 ft | 175 kts | 160° |
| 2026-05-07 21:50 | 18.44833 | -66.18691 | 2974 ft | 172 kts | 141° |
| 2026-05-07 21:50 | 18.44022 | -66.17831 | 2832 ft | 161 kts | 123° |
| 2026-05-07 21:50 | 18.43535 | -66.16798 | 2607 ft | 156 kts | 105° |
| 2026-05-07 21:50 | 18.43380 | -66.15711 | 2487 ft | 146 kts | 91° |
| 2026-05-07 21:51 | 18.43378 | -66.14646 | 2216 ft | 146 kts | 90° |
| 2026-05-07 21:51 | 18.43378 | -66.13568 | 1892 ft | 149 kts | 90° |
| 2026-05-07 21:51 | 18.43377 | -66.12471 | 1613 ft | 151 kts | 91° |
| 2026-05-07 21:51 | 18.43375 | -66.11405 | 1522 ft | 141 kts | 90° |
| 2026-05-07 21:52 | 18.43373 | -66.10358 | 1513 ft | 142 kts | 90° |
| 2026-05-07 21:52 | 18.43371 | -66.09308 | 1507 ft | 145 kts | 90° |
| 2026-05-07 21:52 | 18.43370 | -66.08252 | 1510 ft | 143 kts | 90° |
| 2026-05-07 21:52 | 18.43368 | -66.07198 | 1516 ft | 143 kts | 90° |
| 2026-05-07 21:53 | 18.43362 | -66.06166 | 1403 ft | 138 kts | 92° |
| 2026-05-07 21:53 | 18.43345 | -66.05138 | 1057 ft | 142 kts | 88° |
| 2026-05-07 21:53 | 18.43352 | -66.04099 | 819 ft | 141 kts | 90° |
| 2026-05-07 21:53 | 18.43349 | -66.03080 | 561 ft | 138 kts | 89° |
| 2026-05-07 21:54 | 18.43353 | -66.02069 | 279 ft | 138 kts | 89° |
| 2026-05-07 21:54 | 18.43351 | -66.01082 | 39 ft | 131 kts | 88° |
| 2026-05-07 21:54 | 18.43358 | -66.00213 | 17 ft | 106 kts | 91° |
| 2026-05-07 21:54 | 18.43351 | -65.99636 | 17 ft | 55 kts | 90° |
| 2026-05-07 21:55 | 18.43351 | -65.99301 | 17 ft | 39 kts | 90° |
| 2026-05-07 21:55 | 18.43367 | -65.99089 | 18 ft | 19 kts | 44° |
| 2026-05-07 21:55 | 18.43456 | -65.99107 | 17 ft | 13 kts | 296° |
| 2026-05-07 21:55 | 18.43463 | -65.99164 | 17 ft | 0 kts | 273° |
| 2026-05-07 21:56 | 18.43463 | -65.99175 | 17 ft | 6 kts | 271° |
| 2026-05-07 21:56 | 18.43462 | -65.99242 | 17 ft | 10 kts | 270° |
| 2026-05-07 21:57 | 18.43462 | -65.99321 | 17 ft | 11 kts | 269° |
| 2026-05-07 21:57 | 18.43463 | -65.99407 | 17 ft | 12 kts | 272° |
| 2026-05-07 21:57 | 18.43463 | -65.99500 | 17 ft | 13 kts | 270° |
| 2026-05-07 21:57 | 18.43463 | -65.99598 | 17 ft | 14 kts | 269° |
| 2026-05-07 21:58 | 18.43463 | -65.99666 | 17 ft | 14 kts | 270° |
| 2026-05-07 21:58 | 18.43463 | -65.99773 | 17 ft | 15 kts | 270° |
| 2026-05-07 21:58 | 18.43468 | -65.99878 | 17 ft | 15 kts | 286° |
| 2026-05-07 21:58 | 18.43551 | -65.99935 | 17 ft | 15 kts | 335° |
| 2026-05-07 21:59 | 18.43636 | -65.99998 | 19 ft | 11 kts | 321° |
| 2026-05-07 21:59 | 18.43677 | -66.00047 | 17 ft | 8 kts | 276° |
| 2026-05-07 21:59 | 18.43674 | -66.00075 | 17 ft | 3 kts | 262° |
| 2026-05-07 21:59 | 18.43673 | -66.00085 | 17 ft | 0 kts | 259° |